Terminal Aerodrome Forecast
Issued by NWS

Home | Current Version | Previous Version | Text Only | Print | Product List | Glossary On
Versions: 1 2 3 4 5 6 7 8 9 10 11 12 13 14 15 16 17 18 19
000
FTAK31 PANC 291121
TAFACD
TAF
PACD 291121Z 2912/3012 02008KT P6SM SKC
     FM291600 09008KT P6SM FEW035 SCT250
     FM292000 09012KT P6SM FEW035 BKN250
     FM300500 06017G28KT P6SM SCT035 BKN080=

USA.gov is the U.S. government's official web portal to all federal, state and local government web resources and services.